sensor_id;sensor_type;location;lat;lon;timestamp;temperature;humidity
3736;DHT22;1883;48.202;16.310;2022-09-17T00:00:08;12.30;58.70
3736;DHT22;1883;48.202;16.310;2022-09-17T00:02:35;12.30;58.60
3736;DHT22;1883;48.202;16.310;2022-09-17T00:05:03;12.30;58.40
3736;DHT22;1883;48.202;16.310;2022-09-17T00:07:30;12.30;58.30
3736;DHT22;1883;48.202;16.310;2022-09-17T00:09:57;12.20;58.10
3736;DHT22;1883;48.202;16.310;2022-09-17T00:12:26;12.20;58.00
3736;DHT22;1883;48.202;16.310;2022-09-17T00:14:53;12.20;58.10
3736;DHT22;1883;48.202;16.310;2022-09-17T00:17:20;12.20;57.90
3736;DHT22;1883;48.202;16.310;2022-09-17T00:19:47;12.20;57.90
3736;DHT22;1883;48.202;16.310;2022-09-17T00:22:15;12.10;57.80
3736;DHT22;1883;48.202;16.310;2022-09-17T00:24:42;12.10;57.50
3736;DHT22;1883;48.202;16.310;2022-09-17T00:27:09;12.00;57.30
3736;DHT22;1883;48.202;16.310;2022-09-17T00:29:37;12.00;57.10
3736;DHT22;1883;48.202;16.310;2022-09-17T00:32:04;12.10;57.00
3736;DHT22;1883;48.202;16.310;2022-09-17T00:34:33;12.00;56.90
3736;DHT22;1883;48.202;16.310;2022-09-17T00:37:02;12.00;57.10
3736;DHT22;1883;48.202;16.310;2022-09-17T00:42:11;12.10;57.30
3736;DHT22;1883;48.202;16.310;2022-09-17T00:44:56;12.10;57.40
3736;DHT22;1883;48.202;16.310;2022-09-17T00:47:28;12.10;57.40
3736;DHT22;1883;48.202;16.310;2022-09-17T00:50:06;12.00;57.20
3736;DHT22;1883;48.202;16.310;2022-09-17T00:52:39;12.00;57.20
3736;DHT22;1883;48.202;16.310;2022-09-17T00:55:12;11.90;57.10
3736;DHT22;1883;48.202;16.310;2022-09-17T00:57:41;12.00;57.10
3736;DHT22;1883;48.202;16.310;2022-09-17T01:02:48;12.10;57.10
3736;DHT22;1883;48.202;16.310;2022-09-17T01:05:15;12.10;57.30
3736;DHT22;1883;48.202;16.310;2022-09-17T01:07:53;12.10;57.40
3736;DHT22;1883;48.202;16.310;2022-09-17T01:10:49;12.20;57.70
3736;DHT22;1883;48.202;16.310;2022-09-17T01:13:29;12.20;57.80
3736;DHT22;1883;48.202;16.310;2022-09-17T01:16:05;12.20;58.00
3736;DHT22;1883;48.202;16.310;2022-09-17T01:18:44;12.20;58.00
3736;DHT22;1883;48.202;16.310;2022-09-17T01:24:38;12.20;57.80
3736;DHT22;1883;48.202;16.310;2022-09-17T01:30:38;12.10;57.50
3736;DHT22;1883;48.202;16.310;2022-09-17T01:33:16;12.10;57.30
3736;DHT22;1883;48.202;16.310;2022-09-17T01:35:51;12.10;57.40
3736;DHT22;1883;48.202;16.310;2022-09-17T01:38:24;12.10;57.30
3736;DHT22;1883;48.202;16.310;2022-09-17T01:40:55;12.10;57.10
3736;DHT22;1883;48.202;16.310;2022-09-17T01:43:35;12.00;56.90
3736;DHT22;1883;48.202;16.310;2022-09-17T01:46:11;12.00;56.80
3736;DHT22;1883;48.202;16.310;2022-09-17T01:48:43;11.90;56.40
3736;DHT22;1883;48.202;16.310;2022-09-17T01:51:14;11.90;56.20
3736;DHT22;1883;48.202;16.310;2022-09-17T01:53:47;11.80;55.80
3736;DHT22;1883;48.202;16.310;2022-09-17T01:56:21;11.90;55.80
3736;DHT22;1883;48.202;16.310;2022-09-17T01:58:52;11.80;55.60
3736;DHT22;1883;48.202;16.310;2022-09-17T02:01:24;11.80;55.50
3736;DHT22;1883;48.202;16.310;2022-09-17T02:03:59;11.80;55.30
3736;DHT22;1883;48.202;16.310;2022-09-17T02:06:30;11.80;55.10
3736;DHT22;1883;48.202;16.310;2022-09-17T02:09:00;11.80;55.10
3736;DHT22;1883;48.202;16.310;2022-09-17T02:11:28;11.80;55.20
3736;DHT22;1883;48.202;16.310;2022-09-17T02:13:58;11.80;55.30
3736;DHT22;1883;48.202;16.310;2022-09-17T02:16:29;11.80;55.20
3736;DHT22;1883;48.202;16.310;2022-09-17T02:19:01;11.80;55.00
3736;DHT22;1883;48.202;16.310;2022-09-17T02:21:39;11.80;54.80
3736;DHT22;1883;48.202;16.310;2022-09-17T02:24:13;11.80;54.60
3736;DHT22;1883;48.202;16.310;2022-09-17T02:26:45;11.70;54.40
3736;DHT22;1883;48.202;16.310;2022-09-17T02:29:20;11.70;54.30
3736;DHT22;1883;48.202;16.310;2022-09-17T02:34:19;11.70;54.00
3736;DHT22;1883;48.202;16.310;2022-09-17T02:36:49;11.80;54.00
3736;DHT22;1883;48.202;16.310;2022-09-17T02:39:18;11.80;54.10
3736;DHT22;1883;48.202;16.310;2022-09-17T02:41:51;11.80;54.20
3736;DHT22;1883;48.202;16.310;2022-09-17T02:44:27;11.80;54.20
3736;DHT22;1883;48.202;16.310;2022-09-17T02:47:19;11.80;54.20
3736;DHT22;1883;48.202;16.310;2022-09-17T02:52:34;11.90;54.60
3736;DHT22;1883;48.202;16.310;2022-09-17T02:55:09;11.90;55.10
3736;DHT22;1883;48.202;16.310;2022-09-17T02:57:42;11.90;55.40
3736;DHT22;1883;48.202;16.310;2022-09-17T03:00:13;11.90;55.70
3736;DHT22;1883;48.202;16.310;2022-09-17T03:02:43;12.00;55.90
3736;DHT22;1883;48.202;16.310;2022-09-17T03:05:13;12.00;56.20
3736;DHT22;1883;48.202;16.310;2022-09-17T03:07:43;12.10;56.60
3736;DHT22;1883;48.202;16.310;2022-09-17T03:10:10;12.10;56.70
3736;DHT22;1883;48.202;16.310;2022-09-17T03:12:38;12.00;56.80
3736;DHT22;1883;48.202;16.310;2022-09-17T03:15:06;12.10;56.90
3736;DHT22;1883;48.202;16.310;2022-09-17T03:17:33;12.10;57.00
3736;DHT22;1883;48.202;16.310;2022-09-17T03:20:01;12.10;57.00
3736;DHT22;1883;48.202;16.310;2022-09-17T03:22:28;12.00;56.70
3736;DHT22;1883;48.202;16.310;2022-09-17T03:30:11;12.00;56.60
3736;DHT22;1883;48.202;16.310;2022-09-17T03:32:38;12.00;56.60
3736;DHT22;1883;48.202;16.310;2022-09-17T03:35:05;12.00;56.60
3736;DHT22;1883;48.202;16.310;2022-09-17T03:37:32;12.00;56.60
3736;DHT22;1883;48.202;16.310;2022-09-17T03:39:59;12.00;56.70
3736;DHT22;1883;48.202;16.310;2022-09-17T03:42:27;11.90;56.70
3736;DHT22;1883;48.202;16.310;2022-09-17T03:44:54;11.90;56.80
3736;DHT22;1883;48.202;16.310;2022-09-17T03:47:22;12.00;56.70
3736;DHT22;1883;48.202;16.310;2022-09-17T03:49:50;11.90;56.60
3736;DHT22;1883;48.202;16.310;2022-09-17T03:52:17;11.90;56.60
3736;DHT22;1883;48.202;16.310;2022-09-17T03:54:45;11.90;56.40
3736;DHT22;1883;48.202;16.310;2022-09-17T03:57:12;11.90;56.50
3736;DHT22;1883;48.202;16.310;2022-09-17T03:59:39;11.90;56.40
